Time;durP1;ratioP1;P1;durP2;ratioP2;P2;SDS_P1;SDS_P2;PMS_P1;PMS_P2;Temp;Humidity;BMP_temperature;BMP_pressure;BME280_temperature;BME280_humidity;BME280_pressure;Samples;Min_cycle;Max_cycle;Signal;HPM_P1;HPM_P2
2022/08/19 08:45:01;;;;;;;2.38;0.80;;;27.10;96.00;;;;;;5079770;28;20395;-49
2022/08/19 08:47:38;;;;;;;2.65;0.90;;;27.10;97.40;;;;;;5066825;28;20468;-52
2022/08/19 08:50:18;;;;;;;4.07;1.10;;;27.10;95.90;;;;;;5058739;28;20039;-47
2022/08/19 08:52:51;;;;;;;3.58;1.15;;;26.60;95.60;;;;;;5056416;28;20490;-49
2022/08/19 08:55:28;;;;;;;1.70;0.80;;;26.60;97.00;;;;;;5059223;28;20036;-45
2022/08/19 08:58:07;;;;;;;2.53;1.00;;;26.60;97.80;;;;;;5057910;28;20037;-45
2022/08/19 09:00:35;;;;;;;;;;;26.50;97.30;;;;;;5055025;28;20039;-48
2022/08/19 09:03:02;;;;;;;3.03;0.82;;;26.70;97.10;;;;;;5053353;28;19924;-50
2022/08/19 09:05:48;;;;;;;1.13;0.70;;;26.50;97.10;;;;;;5052567;28;20468;-47
2022/08/19 09:08:46;;;;;;;5.05;0.73;;;26.20;96.40;;;;;;5056071;28;20502;-44
2022/08/19 09:11:39;;;;;;;1.65;0.80;;;26.10;96.90;;;;;;5062219;28;21063;-50
2022/08/19 09:14:41;;;;;;;1.38;1.00;;;25.70;97.30;;;;;;5063075;28;20025;-51
2022/08/19 09:17:08;;;;;;;2.08;0.93;;;25.30;98.20;;;;;;5062346;28;20028;-48
2022/08/19 09:19:36;;;;;;;1.85;1.00;;;24.90;99.00;;;;;;5064018;28;20037;-44
2022/08/19 09:22:02;;;;;;;2.65;1.13;;;24.40;99.90;;;;;;5066297;28;20017;-47
2022/08/19 09:24:27;;;;;;;3.80;1.05;;;24.30;99.90;;;;;;5066552;28;20062;-43
2022/08/19 09:26:53;;;;;;;2.55;1.00;;;24.30;99.90;;;;;;5066325;28;20486;-47
2022/08/19 09:29:20;;;;;;;3.25;0.98;;;24.50;99.90;;;;;;5067427;28;20025;-52
2022/08/19 09:31:46;;;;;;;3.63;1.25;;;24.40;99.90;;;;;;5057334;28;20021;-47
2022/08/19 09:34:12;;;;;;;1.77;0.90;;;24.60;99.90;;;;;;5067143;28;20020;-52
2022/08/19 09:36:38;;;;;;;2.30;0.88;;;24.60;99.90;;;;;;5060592;28;20025;-51
2022/08/19 09:39:05;;;;;;;2.17;0.90;;;24.50;99.90;;;;;;5059237;28;20024;-46
2022/08/19 09:41:31;;;;;;;2.03;1.00;;;24.30;99.90;;;;;;5061109;28;20017;-45
2022/08/19 09:43:58;;;;;;;3.70;1.30;;;24.20;99.90;;;;;;5072876;28;20090;-44
2022/08/19 09:46:26;;;;;;;3.13;1.10;;;24.20;99.90;;;;;;5087342;28;20093;-61
2022/08/19 09:48:53;;;;;;;4.38;1.60;;;24.20;99.90;;;;;;5086419;28;20100;-49
2022/08/19 09:51:26;;;;;;;7.20;2.05;;;24.30;99.90;;;;;;5079176;28;20085;-52
2022/08/19 09:53:53;;;;;;;3.13;1.40;;;24.40;99.90;;;;;;5084806;28;20024;-48
2022/08/19 09:56:20;;;;;;;5.57;2.95;;;24.60;99.90;;;;;;5070301;28;20028;-48
2022/08/19 09:58:47;;;;;;;5.25;3.10;;;24.50;99.90;;;;;;5068102;28;20070;-47
2022/08/19 10:01:25;;;;;;;4.55;2.70;;;24.40;99.80;;;;;;5071512;28;20032;-47
2022/08/19 10:03:53;;;;;;;4.20;2.10;;;24.20;99.80;;;;;;5071148;28;20093;-55
2022/08/19 10:06:19;;;;;;;4.70;2.00;;;24.00;99.90;;;;;;5071746;28;20025;-48
2022/08/19 10:08:46;;;;;;;4.65;1.60;;;23.80;99.90;;;;;;5071607;28;20144;-47
2022/08/19 10:11:14;;;;;;;2.95;1.30;;;23.60;99.90;;;;;;5072125;28;20031;-45
2022/08/19 10:13:39;;;;;;;2.75;1.17;;;23.50;99.90;;;;;;5068383;28;20074;-50
2022/08/19 10:16:09;;;;;;;1.58;1.30;;;23.60;99.90;;;;;;5071682;28;20060;-43
2022/08/19 10:18:36;;;;;;;3.03;1.70;;;23.40;99.90;;;;;;5071932;28;20020;-48
2022/08/19 10:21:12;;;;;;;4.38;2.10;;;23.30;99.90;;;;;;5073462;28;20013;-44
2022/08/19 10:23:40;;;;;;;3.50;2.15;;;23.00;99.90;;;;;;5064565;28;20151;-45
2022/08/19 10:26:07;;;;;;;4.57;2.35;;;22.90;99.90;;;;;;5065949;28;20032;-52
2022/08/19 10:28:36;;;;;;;5.75;2.40;;;22.70;99.90;;;;;;5063291;28;20154;-50
2022/08/19 10:31:12;;;;;;;5.85;2.50;;;22.50;99.90;;;;;;5067116;28;20043;-48
2022/08/19 10:33:38;;;;;;;2.72;2.10;;;22.40;99.90;;;;;;5066663;28;20043;-45
2022/08/19 10:36:17;;;;;;;3.20;2.10;;;22.20;99.90;;;;;;5068157;28;20048;-51
2022/08/19 10:38:45;;;;;;;3.50;1.95;;;22.20;99.90;;;;;;5066289;28;20033;-45
2022/08/19 10:41:19;;;;;;;5.72;1.88;;;22.30;99.90;;;;;;5068563;28;20082;-54
2022/08/19 10:43:47;;;;;;;5.07;2.05;;;22.60;99.90;;;;;;5062927;28;20043;-52
2022/08/19 10:46:15;;;;;;;3.25;1.30;;;22.60;99.90;;;;;;5061181;28;20074;-53
2022/08/19 10:48:41;;;;;;;4.25;1.25;;;22.50;99.90;;;;;;5066782;28;20077;-53
2022/08/19 10:53:52;;;;;;;1.95;1.20;;;22.30;99.90;;;;;;5060650;28;20529;-54
2022/08/19 10:59:04;;;;;;;3.25;1.17;;;22.10;99.90;;;;;;5068613;28;20528;-49
2022/08/19 11:01:32;;;;;;;1.83;1.02;;;22.30;99.90;;;;;;5066467;28;20077;-49
2022/08/19 11:04:00;;;;;;;7.25;2.97;;;22.40;99.90;;;;;;5061548;28;20043;-50
2022/08/19 11:06:26;;;;;;;12.70;8.32;;;22.30;99.90;;;;;;5069492;28;20028;-49
2022/08/19 11:08:54;;;;;;;16.98;12.50;;;22.20;99.90;;;;;;5066118;28;20104;-50
2022/08/19 11:11:21;;;;;;;13.18;10.27;;;22.10;99.90;;;;;;5067732;28;20104;-52
2022/08/19 11:13:47;;;;;;;9.98;6.75;;;22.00;99.90;;;;;;5066672;28;20100;-48
2022/08/19 11:16:16;;;;;;;7.97;5.70;;;22.00;99.90;;;;;;5066682;28;20054;-47
2022/08/19 11:18:46;;;;;;;7.47;4.72;;;22.00;99.90;;;;;;5063797;28;20033;-49
2022/08/19 11:21:13;;;;;;;7.60;4.70;;;22.30;99.90;;;;;;5066543;28;20035;-51
2022/08/19 11:23:40;;;;;;;5.72;4.00;;;22.50;99.90;;;;;;5064017;28;20415;-48
2022/08/19 11:26:06;;;;;;;6.32;4.22;;;22.50;99.90;;;;;;5065189;28;20104;-48
2022/08/19 11:28:32;;;;;;;5.00;3.00;;;22.50;99.90;;;;;;5064165;28;20078;-48
2022/08/19 11:30:58;;;;;;;4.40;2.72;;;22.60;99.90;;;;;;5065711;28;20024;-46
2022/08/19 11:33:26;;;;;;;4.07;2.38;;;22.80;99.90;;;;;;5067240;28;20021;-50
2022/08/19 11:35:52;;;;;;;3.40;1.98;;;23.00;99.90;;;;;;5057967;28;20028;-45
2022/08/19 11:38:18;;;;;;;3.65;1.80;;;23.10;99.90;;;;;;5065554;28;20035;-47
2022/08/19 11:40:43;;;;;;;4.53;1.35;;;23.00;99.90;;;;;;5064248;28;20044;-47
2022/08/19 11:43:09;;;;;;;3.45;1.20;;;22.70;99.90;;;;;;5067301;28;20529;-53
2022/08/19 11:45:35;;;;;;;1.27;0.80;;;22.40;99.90;;;;;;5064913;28;20028;-54
2022/08/19 11:48:01;;;;;;;2.13;1.00;;;22.20;99.90;;;;;;5066141;28;20101;-51
2022/08/19 11:50:27;;;;;;;2.28;1.00;;;21.90;99.90;;;;;;5062502;28;20027;-45
2022/08/19 11:52:55;;;;;;;1.88;1.10;;;21.80;99.90;;;;;;5065900;28;20161;-47
2022/08/19 11:55:21;;;;;;;1.88;1.23;;;21.80;99.90;;;;;;5064001;28;20025;-47
2022/08/19 11:57:47;;;;;;;2.13;1.38;;;21.70;99.90;;;;;;5070344;28;20103;-44
2022/08/19 12:00:13;;;;;;;1.85;1.38;;;21.70;99.90;;;;;;5070445;28;20055;-51
2022/08/19 12:02:39;;;;;;;3.58;1.63;;;21.50;99.90;;;;;;5070399;28;20028;-46
2022/08/19 12:05:06;;;;;;;2.45;1.50;;;21.50;99.90;;;;;;5061877;28;20059;-48
2022/08/19 12:07:34;;;;;;;2.17;1.40;;;21.30;99.90;;;;;;5067364;28;20093;-48
2022/08/19 12:10:00;;;;;;;3.40;1.83;;;21.40;99.90;;;;;;5068881;28;20027;-56
2022/08/19 12:12:27;;;;;;;2.92;1.80;;;21.50;99.90;;;;;;5062804;28;20033;-50
2022/08/19 12:14:56;;;;;;;2.92;1.90;;;21.50;99.90;;;;;;5063742;28;20544;-44
2022/08/19 12:17:26;;;;;;;;;;;21.70;99.90;;;;;;5065964;28;20475;-51
2022/08/19 12:19:53;;;;;;;3.50;1.42;;;21.80;99.90;;;;;;5064425;28;19914;-53
2022/08/19 12:22:19;;;;;;;3.80;1.52;;;21.70;99.90;;;;;;5055052;28;20054;-45
2022/08/19 12:24:45;;;;;;;2.35;1.20;;;21.60;99.90;;;;;;5065762;28;20449;-51
2022/08/19 12:27:11;;;;;;;3.72;1.42;;;21.50;99.90;;;;;;5065715;28;20024;-52
2022/08/19 12:29:36;;;;;;;5.25;1.40;;;21.40;99.90;;;;;;5060943;28;20032;-44
2022/08/19 12:32:02;;;;;;;4.90;1.60;;;21.30;99.90;;;;;;5060951;28;20047;-49
2022/08/19 12:34:32;;;;;;;3.10;1.50;;;21.40;99.90;;;;;;5067870;28;20025;-45
2022/08/19 12:37:01;;;;;;;5.00;1.60;;;21.60;99.90;;;;;;5061085;28;20052;-46
2022/08/19 12:39:26;;;;;;;2.38;1.23;;;21.80;99.90;;;;;;5070633;28;20409;-48
2022/08/19 12:41:53;;;;;;;3.15;1.40;;;22.00;99.90;;;;;;5065460;28;20034;-50
2022/08/19 12:44:19;;;;;;;5.22;1.60;;;22.10;99.90;;;;;;5066365;28;20131;-46
2022/08/19 12:46:45;;;;;;;6.70;1.70;;;22.30;99.90;;;;;;5068918;28;20032;-48
2022/08/19 12:49:10;;;;;;;6.25;1.40;;;22.70;99.90;;;;;;5070539;28;20434;-48
2022/08/19 12:51:36;;;;;;;2.88;1.40;;;23.10;99.90;;;;;;5060296;28;20021;-47
2022/08/19 12:54:04;;;;;;;5.00;1.92;;;23.20;99.90;;;;;;5064678;28;20032;-50
2022/08/19 12:56:30;;;;;;;4.50;1.50;;;23.40;99.90;;;;;;5061143;28;20066;-46
2022/08/19 12:58:56;;;;;;;7.03;2.22;;;23.50;99.90;;;;;;5057124;28;20079;-45
2022/08/19 13:01:22;;;;;;;6.15;1.90;;;23.80;99.90;;;;;;5054952;28;20463;-44
2022/08/19 13:03:48;;;;;;;4.55;2.10;;;24.00;99.90;;;;;;5057869;28;20039;-45
2022/08/19 13:06:14;;;;;;;7.65;1.90;;;24.30;99.90;;;;;;5052276;28;20051;-52
2022/08/19 13:08:40;;;;;;;5.65;1.83;;;24.60;99.90;;;;;;5060411;28;20092;-45
2022/08/19 13:11:17;;;;;;;4.97;2.00;;;24.80;99.90;;;;;;5059092;28;20169;-47
2022/08/19 13:13:44;;;;;;;5.93;1.77;;;25.00;99.90;;;;;;5068750;28;20032;-46
2022/08/19 13:16:11;;;;;;;8.93;2.33;;;24.70;99.90;;;;;;5064499;28;20071;-50
2022/08/19 13:18:38;;;;;;;8.10;2.38;;;24.60;99.90;;;;;;5062440;28;20021;-47
2022/08/19 13:21:05;;;;;;;6.95;2.20;;;24.40;99.90;;;;;;5057680;28;20051;-49
2022/08/19 13:23:33;;;;;;;8.73;1.98;;;24.50;99.90;;;;;;5063643;28;20113;-50
2022/08/19 13:26:01;;;;;;;8.63;2.05;;;24.80;99.90;;;;;;5069865;28;20101;-47
2022/08/19 13:33:10;;;;;;;7.00;2.10;;;25.00;99.90;;;;;;5062913;28;20372;-45
2022/08/19 13:34:00;;;;;;;5.25;2.10;;;25.70;99.90;;;;;;5063160;28;20089;-47
2022/08/19 13:36:26;;;;;;;5.03;1.90;;;25.80;98.10;;;;;;5064306;28;20028;-44
2022/08/19 13:38:51;;;;;;;8.05;2.03;;;25.70;96.20;;;;;;5069082;28;20036;-46
2022/08/19 13:41:18;;;;;;;8.40;2.40;;;25.40;96.00;;;;;;5071902;28;20031;-49
2022/08/19 13:43:44;;;;;;;7.05;2.35;;;24.80;97.50;;;;;;5071085;28;20197;-47
2022/08/19 13:46:13;;;;;;;7.07;2.38;;;24.60;97.90;;;;;;5069157;28;20108;-49
2022/08/19 13:48:40;;;;;;;5.63;2.10;;;24.50;98.70;;;;;;5065772;28;20407;-52
2022/08/19 13:51:09;;;;;;;6.65;1.85;;;24.70;99.90;;;;;;5065983;28;20120;-44
2022/08/19 13:53:39;;;;;;;7.78;2.60;;;24.90;98.50;;;;;;5070872;28;20035;-47
2022/08/19 13:56:10;;;;;;;6.07;2.40;;;25.00;97.30;;;;;;5064530;28;20506;-50
2022/08/19 13:58:36;;;;;;;6.88;2.08;;;25.20;97.60;;;;;;5065199;28;20151;-49
2022/08/19 14:01:04;;;;;;;8.45;2.25;;;25.20;96.60;;;;;;5070793;28;20016;-49
2022/08/19 14:03:31;;;;;;;8.70;2.25;;;25.30;97.30;;;;;;5074003;28;20039;-48
2022/08/19 14:05:57;;;;;;;7.22;2.17;;;25.10;96.60;;;;;;5070421;28;20486;-46
2022/08/19 14:08:23;;;;;;;8.07;2.65;;;25.20;97.50;;;;;;5076430;28;20021;-45
2022/08/19 14:10:49;;;;;;;7.07;3.38;;;25.10;97.30;;;;;;5074870;28;20044;-49
2022/08/19 14:13:20;;;;;;;8.48;3.00;;;25.40;96.80;;;;;;5077894;28;20032;-46
2022/08/19 14:15:47;;;;;;;6.68;3.00;;;25.40;96.40;;;;;;5074417;28;20170;-52
2022/08/19 14:18:13;;;;;;;9.18;2.70;;;25.40;97.30;;;;;;5069467;28;20024;-50
2022/08/19 14:20:39;;;;;;;7.70;2.50;;;25.40;96.40;;;;;;5068136;28;20390;-47
2022/08/19 14:23:05;;;;;;;7.60;2.15;;;25.40;96.50;;;;;;5072810;28;20673;-45
2022/08/19 14:25:32;;;;;;;9.93;2.92;;;25.00;96.30;;;;;;5072500;28;20123;-46
2022/08/19 14:27:58;;;;;;;6.90;2.65;;;25.20;97.60;;;;;;5071328;28;20046;-53
2022/08/19 14:30:28;;;;;;;7.75;2.55;;;25.40;96.90;;;;;;5064762;28;20029;-47
2022/08/19 14:32:54;;;;;;;6.97;2.30;;;25.30;96.10;;;;;;5065628;28;20062;-46
2022/08/19 14:35:23;;;;;;;6.88;2.40;;;25.10;95.50;;;;;;5058196;28;20029;-53
2022/08/19 14:37:53;;;;;;;7.05;2.33;;;25.20;95.90;;;;;;5059098;28;20021;-47
2022/08/19 14:40:25;;;;;;;5.63;2.35;;;25.30;95.60;;;;;;5062773;28;20029;-48
2022/08/19 14:42:52;;;;;;;7.93;2.78;;;25.40;96.40;;;;;;5067522;28;20604;-46
2022/08/19 14:45:18;;;;;;;8.38;2.25;;;25.40;95.40;;;;;;5069294;28;20039;-46
2022/08/19 14:47:43;;;;;;;8.15;2.33;;;25.30;95.40;;;;;;5056019;28;20029;-54
2022/08/19 14:50:11;;;;;;;6.28;2.30;;;25.30;95.90;;;;;;5065417;28;20047;-45
2022/08/19 14:52:37;;;;;;;5.97;1.83;;;25.30;95.20;;;;;;5059679;28;20052;-52
2022/08/19 14:55:04;;;;;;;5.45;2.08;;;25.40;95.40;;;;;;5070684;28;20508;-47
2022/08/19 14:57:30;;;;;;;7.53;2.30;;;25.20;96.00;;;;;;5070883;28;20032;-49
2022/08/19 14:59:56;;;;;;;7.35;2.20;;;25.30;95.40;;;;;;5065022;28;20027;-46
2022/08/19 15:02:23;;;;;;;6.47;2.20;;;25.10;93.40;;;;;;5067210;28;20043;-46
2022/08/19 15:04:50;;;;;;;4.55;2.00;;;25.10;94.70;;;;;;5067964;28;20036;-50
2022/08/19 15:07:16;;;;;;;4.85;1.83;;;25.10;94.00;;;;;;5071842;28;20017;-50
2022/08/19 15:09:41;;;;;;;5.60;2.20;;;25.20;93.90;;;;;;5069456;28;20039;-44
2022/08/19 15:12:07;;;;;;;4.97;2.10;;;25.30;94.40;;;;;;5068865;28;20411;-50
2022/08/19 15:14:37;;;;;;;4.97;1.80;;;25.20;92.60;;;;;;5070809;28;20425;-45
2022/08/19 15:17:04;;;;;;;7.00;2.08;;;25.10;93.30;;;;;;5069753;28;20028;-49
2022/08/19 15:19:32;;;;;;;6.32;2.10;;;25.00;93.00;;;;;;5070563;28;20605;-50
2022/08/19 15:21:58;;;;;;;8.43;1.95;;;24.70;92.90;;;;;;5058706;28;20033;-48
2022/08/19 15:24:24;;;;;;;7.00;2.03;;;24.60;93.30;;;;;;5067473;28;20502;-46
2022/08/19 15:26:52;;;;;;;6.07;1.92;;;24.30;91.40;;;;;;5067576;28;20063;-46
2022/08/19 15:29:18;;;;;;;7.20;1.90;;;24.30;92.50;;;;;;5056063;28;20482;-45
2022/08/19 15:31:44;;;;;;;4.97;1.80;;;24.30;91.90;;;;;;5069554;28;20032;-46
2022/08/19 15:34:10;;;;;;;8.35;2.08;;;24.40;93.20;;;;;;5070292;28;20074;-50
2022/08/19 15:36:36;;;;;;;5.35;1.92;;;24.30;93.70;;;;;;5070293;28;20020;-47
2022/08/19 15:39:03;;;;;;;10.70;1.95;;;24.30;94.40;;;;;;5071656;28;20024;-49
2022/08/19 15:41:30;;;;;;;7.45;2.00;;;24.30;94.30;;;;;;5071237;28;20028;-46
2022/08/19 15:44:03;;;;;;;8.50;2.28;;;24.20;94.10;;;;;;5069624;28;20109;-47
2022/08/19 15:46:32;;;;;;;8.55;2.00;;;24.10;95.10;;;;;;5069256;28;20016;-46
2022/08/19 15:48:59;;;;;;;6.03;2.13;;;24.00;94.10;;;;;;5069682;28;20033;-45
2022/08/19 15:51:25;;;;;;;6.30;2.30;;;23.90;94.50;;;;;;5061835;28;20021;-49
2022/08/19 15:53:52;;;;;;;8.10;2.42;;;23.70;94.90;;;;;;5067166;28;20029;-47
2022/08/19 15:56:18;;;;;;;6.35;1.85;;;23.80;94.70;;;;;;5067962;28;20477;-48
2022/08/19 16:06:47;;;;;;;9.98;2.55;;;23.60;93.90;;;;;;5071362;28;20104;-51
2022/08/19 16:09:14;;;;;;;6.20;2.20;;;23.40;93.60;;;;;;5070956;28;20112;-45
2022/08/19 16:11:41;;;;;;;7.07;2.33;;;23.40;94.60;;;;;;5070899;28;20035;-53
2022/08/19 16:14:08;;;;;;;9.63;2.22;;;23.30;94.60;;;;;;5069876;28;20054;-56
2022/08/19 16:16:34;;;;;;;7.35;1.90;;;23.30;95.00;;;;;;5070585;28;20101;-46
2022/08/19 16:19:02;;;;;;;10.05;2.00;;;23.40;94.20;;;;;;5069590;28;20070;-49
2022/08/19 16:21:32;;;;;;;8.98;2.15;;;23.40;95.30;;;;;;5067707;28;20093;-49
2022/08/19 16:24:00;;;;;;;13.05;2.22;;;23.50;94.70;;;;;;5064307;28;20499;-53
2022/08/19 16:26:28;;;;;;;6.65;1.35;;;23.70;93.90;;;;;;5066032;28;20035;-44
2022/08/19 16:28:55;;;;;;;5.80;1.47;;;23.70;88.50;;;;;;5061816;28;20128;-47
2022/08/19 16:31:21;;;;;;;6.40;1.30;;;23.80;81.50;;;;;;5071268;28;20495;-48
2022/08/19 16:33:47;;;;;;;4.82;1.25;;;23.80;79.90;;;;;;5070690;28;20081;-44
2022/08/19 16:36:13;;;;;;;6.15;1.40;;;23.90;79.40;;;;;;5070492;28;20025;-46
2022/08/19 16:38:38;;;;;;;5.40;1.60;;;23.90;78.80;;;;;;5059007;28;20032;-48
2022/08/19 16:41:04;;;;;;;6.25;1.58;;;23.90;77.80;;;;;;5058965;28;20487;-45
2022/08/19 16:43:30;;;;;;;5.85;1.60;;;23.90;76.40;;;;;;5060436;28;20526;-47
2022/08/19 16:45:56;;;;;;;6.43;1.60;;;23.90;79.10;;;;;;5055874;28;20392;-43
2022/08/19 16:48:28;;;;;;;7.88;1.88;;;23.90;78.00;;;;;;5057985;28;20025;-48
2022/08/19 16:50:55;;;;;;;5.97;1.30;;;23.80;76.40;;;;;;5062237;28;20033;-45
2022/08/19 16:53:26;;;;;;;5.65;1.30;;;23.70;77.60;;;;;;5057772;28;20490;-44
2022/08/19 16:55:52;;;;;;;4.38;1.17;;;23.80;78.50;;;;;;5052673;28;20470;-50
2022/08/19 16:58:21;;;;;;;5.55;1.70;;;23.70;75.90;;;;;;5058042;28;20059;-48
2022/08/19 17:00:48;;;;;;;7.00;1.50;;;23.70;76.90;;;;;;5055906;28;20041;-52
2022/08/19 17:03:16;;;;;;;6.85;1.80;;;23.60;75.70;;;;;;5053606;28;20032;-51
2022/08/19 17:05:50;;;;;;;7.47;1.20;;;23.60;76.20;;;;;;5059518;28;20123;-50
2022/08/19 17:08:18;;;;;;;4.75;1.20;;;23.60;77.20;;;;;;5063319;28;20028;-46
2022/08/19 17:10:44;;;;;;;7.60;1.88;;;23.40;76.40;;;;;;5064095;28;20108;-49
2022/08/19 17:13:13;;;;;;;5.38;1.38;;;23.40;76.10;;;;;;5063219;28;20698;-54
2022/08/19 17:15:38;;;;;;;5.47;1.30;;;23.30;75.20;;;;;;5066731;28;20020;-51
2022/08/19 17:18:06;;;;;;;4.10;1.20;;;23.20;76.00;;;;;;5064781;28;20593;-47
2022/08/19 17:20:33;;;;;;;6.72;1.73;;;23.20;73.70;;;;;;5062249;28;20103;-48
2022/08/19 17:22:59;;;;;;;6.25;1.50;;;23.20;74.50;;;;;;5068936;28;20104;-49
2022/08/19 17:25:27;;;;;;;6.72;1.25;;;23.10;75.70;;;;;;5068338;28;20037;-46
2022/08/19 17:27:53;;;;;;;5.17;1.10;;;23.10;75.50;;;;;;5065238;28;20036;-51
2022/08/19 17:30:20;;;;;;;5.75;1.30;;;23.00;76.10;;;;;;5065540;28;20822;-47
2022/08/19 17:32:46;;;;;;;7.68;1.77;;;22.90;77.60;;;;;;5067345;28;20025;-52
2022/08/19 17:35:18;;;;;;;9.32;1.60;;;22.80;77.00;;;;;;5067512;28;20476;-51
2022/08/19 17:37:44;;;;;;;4.65;1.35;;;22.80;76.40;;;;;;5065369;28;20035;-59
2022/08/19 17:40:10;;;;;;;9.65;1.80;;;22.80;76.70;;;;;;5061644;28;20112;-49
2022/08/19 17:42:35;;;;;;;7.47;1.40;;;22.70;77.60;;;;;;5065054;28;20028;-53
2022/08/19 17:45:02;;;;;;;10.10;1.65;;;22.60;77.10;;;;;;5059810;28;20044;-43
2022/08/19 17:47:28;;;;;;;6.63;1.40;;;22.50;78.20;;;;;;5060090;28;20053;-43
2022/08/19 17:49:55;;;;;;;7.82;1.98;;;22.40;78.00;;;;;;5066182;28;20130;-43
2022/08/19 17:52:21;;;;;;;5.95;1.50;;;22.50;79.10;;;;;;5063446;28;20483;-50
2022/08/19 17:54:46;;;;;;;6.47;1.52;;;22.40;78.10;;;;;;5072472;28;20036;-48
2022/08/19 17:57:12;;;;;;;8.90;1.50;;;22.40;79.80;;;;;;5068072;28;20479;-44
2022/08/19 17:59:39;;;;;;;5.60;1.60;;;22.30;79.20;;;;;;5067543;28;20025;-47
2022/08/19 18:02:07;;;;;;;6.85;1.67;;;22.30;77.90;;;;;;5068507;28;20038;-51
2022/08/19 18:04:33;;;;;;;6.13;1.83;;;22.20;79.50;;;;;;5064202;28;20142;-49
2022/08/19 18:07:02;;;;;;;5.50;1.92;;;22.20;80.10;;;;;;5074024;28;20021;-43
2022/08/19 18:09:30;;;;;;;7.65;1.67;;;22.10;79.50;;;;;;5076021;28;20035;-47
2022/08/19 18:11:58;;;;;;;7.32;1.77;;;22.00;80.70;;;;;;5068790;28;20103;-45
2022/08/19 18:14:27;;;;;;;6.00;1.73;;;22.00;82.30;;;;;;5072808;28;20021;-45
2022/08/19 18:16:56;;;;;;;4.97;1.40;;;22.10;82.90;;;;;;5070628;28;20116;-56
2022/08/19 18:19:22;;;;;;;;;;;22.00;81.30;;;;;;5067662;28;20025;-51
2022/08/19 18:21:48;;;;;;;6.57;1.67;;;21.90;81.20;;;;;;5071638;28;20424;-53
2022/08/19 18:24:14;;;;;;;5.05;1.60;;;21.90;80.20;;;;;;5072435;28;20040;-44
2022/08/19 18:26:40;;;;;;;8.10;1.77;;;21.80;83.40;;;;;;5068326;28;20476;-46
2022/08/19 18:29:06;;;;;;;5.60;1.55;;;21.70;83.60;;;;;;5068337;28;20033;-49
2022/08/19 18:31:32;;;;;;;6.47;1.60;;;21.60;83.90;;;;;;5068083;28;20016;-50
2022/08/19 18:33:58;;;;;;;10.82;2.22;;;21.50;85.50;;;;;;5071978;28;20382;-46
2022/08/19 18:36:23;;;;;;;7.93;1.67;;;21.40;87.00;;;;;;5067803;28;20024;-43
2022/08/19 18:49:49;;;;;;;6.20;1.48;;;21.00;89.20;;;;;;5066127;28;20040;-51
2022/08/19 18:52:21;;;;;;;6.85;1.75;;;20.90;90.00;;;;;;5070342;28;20025;-45
2022/08/19 18:54:47;;;;;;;9.68;1.83;;;20.80;89.40;;;;;;5065041;28;20047;-45
2022/08/19 18:57:13;;;;;;;7.78;1.55;;;20.70;90.30;;;;;;5071944;28;20416;-46
2022/08/19 18:59:41;;;;;;;13.85;1.92;;;20.60;90.70;;;;;;5071337;28;20028;-54
2022/08/19 19:02:08;;;;;;;4.63;1.25;;;20.50;90.60;;;;;;5071917;28;20021;-43
2022/08/19 19:04:37;;;;;;;7.22;2.03;;;20.40;90.60;;;;;;5070109;28;20075;-46
2022/08/19 19:07:08;;;;;;;8.55;1.70;;;20.30;90.80;;;;;;5072117;28;20035;-44
2022/08/19 19:09:34;;;;;;;8.63;1.95;;;20.30;89.50;;;;;;5072090;28;20099;-46
2022/08/19 19:12:02;;;;;;;8.07;1.67;;;20.20;91.40;;;;;;5072194;28;20112;-48
2022/08/19 19:14:31;;;;;;;10.55;2.17;;;20.10;91.50;;;;;;5071945;28;20060;-45
2022/08/19 19:17:02;;;;;;;7.70;1.90;;;20.00;92.40;;;;;;5063618;28;20033;-44
2022/08/19 19:19:28;;;;;;;5.53;1.42;;;19.90;91.90;;;;;;5060221;28;20037;-46
2022/08/19 19:21:54;;;;;;;8.95;2.28;;;19.90;92.40;;;;;;5063543;28;20387;-41
2022/08/19 19:24:24;;;;;;;8.05;1.70;;;19.70;92.40;;;;;;5067799;28;20036;-45
2022/08/19 19:26:52;;;;;;;9.93;1.77;;;19.70;91.90;;;;;;5067282;28;20029;-42
2022/08/19 19:29:19;;;;;;;6.32;1.85;;;19.60;93.30;;;;;;5068618;28;20471;-45
2022/08/19 19:31:44;;;;;;;6.47;1.73;;;19.50;92.70;;;;;;5067847;28;20039;-46
2022/08/19 19:34:12;;;;;;;5.32;1.45;;;19.40;92.60;;;;;;5066121;28;20032;-47
2022/08/19 19:36:38;;;;;;;6.05;1.50;;;19.40;93.40;;;;;;5066892;28;20375;-44
2022/08/19 19:39:05;;;;;;;7.57;1.42;;;19.30;92.70;;;;;;5070639;28;20040;-44
2022/08/19 19:41:32;;;;;;;7.47;1.67;;;19.20;93.60;;;;;;5061244;28;20475;-49
2022/08/19 19:43:59;;;;;;;5.45;1.70;;;19.20;93.90;;;;;;5065272;28;20173;-44
2022/08/19 19:46:29;;;;;;;6.90;2.00;;;19.10;93.70;;;;;;5071216;28;20020;-51
2022/08/19 19:48:55;;;;;;;8.07;1.75;;;19.00;93.60;;;;;;5068257;28;20479;-51
2022/08/19 19:51:23;;;;;;;5.65;1.63;;;18.90;94.20;;;;;;5070965;28;20028;-51
2022/08/19 19:53:49;;;;;;;7.55;1.60;;;18.90;93.90;;;;;;5071527;28;20039;-49
2022/08/19 19:56:15;;;;;;;9.77;1.77;;;18.80;94.20;;;;;;5071475;28;20020;-49
2022/08/19 19:58:42;;;;;;;8.48;1.73;;;18.80;93.90;;;;;;5071459;28;20025;-45
2022/08/19 20:01:11;;;;;;;6.57;1.52;;;18.70;94.30;;;;;;5070986;28;20099;-49
2022/08/19 20:03:41;;;;;;;8.20;1.60;;;18.60;94.70;;;;;;5071297;28;20107;-51
2022/08/19 20:06:08;;;;;;;10.70;2.13;;;18.50;95.20;;;;;;5062914;28;20128;-45
2022/08/19 20:11:34;;;;;;;7.40;1.85;;;18.40;95.10;;;;;;5068169;28;20485;-47
2022/08/19 20:14:03;;;;;;;10.23;1.73;;;18.30;95.30;;;;;;5059256;28;20086;-45
2022/08/19 20:16:30;;;;;;;5.25;1.50;;;18.30;95.80;;;;;;5068052;28;20016;-44
2022/08/19 20:18:57;;;;;;;6.43;1.70;;;18.20;96.00;;;;;;5065904;28;20502;-44
2022/08/19 20:21:26;;;;;;;9.93;1.73;;;18.10;95.20;;;;;;5062294;28;20044;-45
2022/08/19 20:23:55;;;;;;;10.77;2.30;;;18.10;95.90;;;;;;5061365;28;20112;-44
2022/08/19 20:26:21;;;;;;;6.18;1.70;;;18.10;96.10;;;;;;5059920;28;20475;-44
2022/08/19 20:28:47;;;;;;;7.47;1.85;;;18.10;96.20;;;;;;5070960;28;20035;-49
2022/08/19 20:31:13;;;;;;;7.40;1.85;;;18.00;96.10;;;;;;5066421;28;20033;-49
2022/08/19 20:33:39;;;;;;;7.72;1.88;;;18.00;96.40;;;;;;5060558;28;20024;-46
2022/08/19 20:36:04;;;;;;;5.72;1.65;;;17.90;97.10;;;;;;5069898;28;20596;-47
2022/08/19 20:38:33;;;;;;;7.13;2.10;;;17.90;96.60;;;;;;5066200;28;20434;-53
2022/08/19 20:41:03;;;;;;;7.10;1.98;;;17.90;96.50;;;;;;5064840;28;20103;-50
2022/08/19 20:43:29;;;;;;;7.57;1.55;;;17.80;96.80;;;;;;5067177;28;20055;-49
2022/08/19 20:45:55;;;;;;;5.55;1.73;;;17.80;96.70;;;;;;5065846;28;20032;-46
2022/08/19 20:48:21;;;;;;;8.50;1.75;;;17.70;96.90;;;;;;5066587;28;20033;-53
2022/08/19 20:50:47;;;;;;;9.38;2.30;;;17.70;96.30;;;;;;5064294;28;20046;-48
2022/08/19 20:53:17;;;;;;;6.30;2.30;;;17.70;97.00;;;;;;5067318;28;20040;-56
2022/08/19 20:55:45;;;;;;;6.80;2.22;;;17.60;97.20;;;;;;5068847;28;20047;-48
2022/08/19 20:58:12;;;;;;;10.82;2.75;;;17.60;97.40;;;;;;5076244;28;20016;-46
2022/08/19 21:00:39;;;;;;;7.78;1.80;;;17.60;96.90;;;;;;5061661;28;20025;-51
2022/08/19 21:03:04;;;;;;;7.00;1.88;;;17.50;96.90;;;;;;5077272;28;20025;-48
2022/08/19 21:05:30;;;;;;;4.85;1.60;;;17.50;97.50;;;;;;5075991;28;20025;-45
2022/08/19 21:07:56;;;;;;;7.28;1.80;;;17.40;97.40;;;;;;5073261;28;20020;-47
2022/08/19 21:10:22;;;;;;;7.53;2.40;;;17.40;97.80;;;;;;5078318;28;20063;-47
2022/08/19 21:12:48;;;;;;;7.65;2.13;;;17.40;97.30;;;;;;5068427;28;20028;-51
2022/08/19 21:15:16;;;;;;;4.20;1.98;;;17.40;98.00;;;;;;5070758;28;20039;-48
2022/08/19 21:17:41;;;;;;;7.35;2.00;;;17.40;97.30;;;;;;5065776;28;20036;-53
2022/08/19 21:20:08;;;;;;;7.60;2.15;;;17.40;97.80;;;;;;5067516;28;20047;-48
2022/08/19 21:22:34;;;;;;;6.53;1.92;;;17.30;98.50;;;;;;5079007;28;20020;-47
2022/08/19 21:25:01;;;;;;;6.63;2.10;;;17.30;97.90;;;;;;5068593;28;20086;-45
2022/08/19 21:27:26;;;;;;;9.65;2.53;;;17.20;98.10;;;;;;5062740;28;20029;-52
2022/08/19 21:29:53;;;;;;;8.73;2.47;;;17.30;98.40;;;;;;5053481;28;20100;-53
2022/08/19 21:32:20;;;;;;;11.43;2.85;;;17.20;99.60;;;;;;5073736;28;20025;-49
2022/08/19 21:34:46;;;;;;;6.70;1.90;;;17.00;99.90;;;;;;5076900;28;20033;-45
2022/08/19 21:37:12;;;;;;;6.55;2.28;;;16.90;98.70;;;;;;5064907;28;20115;-48
2022/08/19 21:39:38;;;;;;;6.95;1.70;;;16.90;99.90;;;;;;5068757;28;20024;-49
2022/08/19 21:42:04;;;;;;;5.65;2.03;;;16.80;99.90;;;;;;5068283;28;20024;-50
2022/08/19 21:44:30;;;;;;;9.98;2.35;;;16.70;99.90;;;;;;5068152;28;20079;-48
2022/08/19 21:46:55;;;;;;;6.80;1.70;;;16.70;99.90;;;;;;5067059;28;20024;-45
2022/08/19 21:49:21;;;;;;;9.85;2.05;;;16.60;99.90;;;;;;5067301;28;20033;-45
2022/08/19 21:51:48;;;;;;;8.82;2.20;;;16.60;99.90;;;;;;5060877;28;20029;-44
2022/08/19 21:54:14;;;;;;;6.80;1.83;;;16.60;99.90;;;;;;5076646;28;20066;-44
2022/08/19 21:56:41;;;;;;;6.35;2.50;;;16.50;99.90;;;;;;5072134;28;20060;-44
2022/08/19 21:59:06;;;;;;;6.80;2.13;;;16.40;99.90;;;;;;5071840;28;20423;-44
2022/08/19 22:01:33;;;;;;;6.88;2.40;;;16.40;99.90;;;;;;5071352;28;20448;-49
2022/08/19 22:03:59;;;;;;;8.52;2.28;;;16.30;99.90;;;;;;5071766;28;20029;-52